Terminal Aerodrome Forecast
Issued by NWS Jackson, KY

Home | Current Version | Previous Version | Text Only | Print | Product List | Glossary On
Versions: 1 2 3 4 5 6 7 8 9 10 11 12 13 14 15
000
FTUS43 KJKL 050525
TAFJKL
TAF
KJKL 050525Z 0506/0606 00000KT P6SM SKC
     FM051000 00000KT 4SM BR SKC
     FM051300 VRB03KT P6SM SKC
     FM051800 VRB03KT P6SM VCTS SCT045CB BKN200
     FM060500 00000KT 4SM BR SKC=

USA.gov is the U.S. government's official web portal to all federal, state and local government web resources and services.